Missoula, MT (59801)

12:19 PM MDT on May 23, 2017 (GMT -0600)
Franklin to the Fort | | Change Station
Active Advisory: Wind Advisory

Elev 3200 ft 46.86 °N, 114.02 °W | Updated 4 seconds ago

Clear
Clear
73.0 °F
Feels Like 77 °F
N
6.0
Wind Variable Wind from NW
Gusts 6.0 mph

Today
High -- | Low -- °F
--% Chance of Precip.
Yesterday
High -- | Low -- °F
Precip. -- in
Pressure 30.04 in
Visibility 10.0 miles
Clouds Clear
Heat Index 77 °F
Dew Point 45 °F
Humidity 36%
Rainfall 0.00 in
Snow Depth Not available.
5:52 AM 9:14 PM
Waning Crescent, 6% visible
METAR KMSO 231753Z 00000KT 10SM CLR 20/07 A3007 RMK AO2 SLP172 T02000072 10200 20061 58029
Pressure 30.04 in
Visibility 10.0 miles
Clouds Clear
Heat Index 77 °F
Dew Point 45 °F
Humidity 36%
Rainfall 0.00 in
Snow Depth Not available.
5:52 AM 9:14 PM
Waning Crescent, 6% visible
METAR KMSO 231753Z 00000KT 10SM CLR 20/07 A3007 RMK AO2 SLP172 T02000072 10200 20061 58029

Get Your Daily Forecast Email!

Thanks for signing up!

Be on the lookout for a verification email in your inbox.

You'll start receiving severe weather alerts in your inbox..

×

10-Day Weather Forecast

Almanac

Astronomy

May. 23, 2017 Rise Set
Actual Time
Civil Twilight
Nautical Twilight
Astronomical Twilight
Moon
Length of Visible Light
Length of Day
Tomorrow will be .
, % of the Moon is Illuminated

Today's Extremes

State Highs State Lows

Community

WunderPhotos

Category 6

Welcome to Category 6. This is the collective home for Weather Underground's featured writeups by Dr. Jeff Masters (right), Bob Henson (left), Chris Burt, and other regular contributors.

Nearby

Air Quality

  Air Quality AQ Index Pollutant
Not available.

Snow Depth

Station Depth Elevation

Earthquake Activity

City Distance Mag. Time & Date
Minimum magnitude displayed is 2.5.

Coastal Water Temperatures

Place Temperature

Stations

Nearby Weather Stations

Station Location Temp. Windchill Dew Point Humidity Wind Precip. Elev Updated Type
                   

Watches & Warnings

Wind Advisory
Issued: 9:54 AM MDT May. 23, 2017 – National Weather Service

... Wind Advisory in effect from 9 am to 9 PM MDT Wednesday...

The National Weather Service in Missoula has issued a Wind
Advisory... which is in effect from 9 am to 9 PM MDT Wednesday.

* Impacts/timing: strong winds will develop mid Wednesday morning
and continue through the evening. Tree damage possible.
Crosswinds will create hazardous driving conditions.

* Winds: west 20 to 30 mph... gusting to 45 mph.

* Locations impacted include: Bitterroot valley, Missoula,
Highway 93 Sula to Lost Trail Pass, Lolo Pass, Highway 200
Bonner to Greenough, Highway 83 Seeley Lake to Condon, and I-
90 East Missoula to Bearmouth